Poplar Springs, Mississippi
Current Conditions -  °F | °C
As of 8:53 PM on Friday 21 Nov 2014 (Local Time) from KGWO Reporting Station
Overcast Overcast  
Wind Chill: 61°   Ceiling: 9000
Heat Index: 61°   Visibility: 10mi
Dew Point: 46°   Wind: 9mph
Humidity: 58%   Direction: 140°SE
Pressure: 30.29"   Gusts: NA
Location:  33.3807°N, 89.5554°W
Report Text: KGWO 220253Z AUTO 14008KT 10SM OVC090 16/08 A3029 RMK AO2 SLP255 T01610078 53005 TSNO
Loading
Personal Weather Stations






























Interactive Weather Map New forecast layout! Learn more

10-Day Weather Forecast

Advertisements
Track Severe Weather on mobile